createdAt,value
2017-12-04T00:02:06.250Z,44.65
2017-12-04T00:04:34.523Z,44.97
2017-12-04T00:07:02.775Z,47.20
2017-12-04T00:09:30.299Z,43.20
2017-12-04T00:11:57.780Z,39.80
2017-12-04T00:14:26.031Z,41.53
2017-12-04T00:16:53.534Z,40.53
2017-12-04T00:19:21.015Z,39.05
2017-12-04T00:21:48.518Z,36.00
2017-12-04T00:24:16.048Z,36.60
2017-12-04T00:26:43.582Z,32.33
2017-12-04T00:29:11.831Z,35.58
2017-12-04T00:31:39.338Z,37.30
2017-12-04T00:34:06.827Z,35.63
2017-12-04T00:36:34.338Z,35.92
2017-12-04T00:39:02.604Z,32.97
2017-12-04T00:41:30.128Z,33.22
2017-12-04T00:43:57.611Z,35.35
2017-12-04T00:46:25.133Z,30.52
2017-12-04T00:48:52.626Z,31.27
2017-12-04T00:51:20.140Z,30.15
2017-12-04T00:53:47.654Z,30.70
2017-12-04T00:56:15.928Z,31.33
2017-12-04T00:58:44.187Z,30.05
2017-12-04T01:01:11.709Z,29.65
2017-12-04T01:03:39.203Z,27.62
2017-12-04T01:06:06.693Z,28.15
2017-12-04T01:08:34.968Z,31.05
2017-12-04T01:11:03.227Z,31.83
2017-12-04T01:13:30.708Z,30.00
2017-12-04T01:15:58.231Z,25.62
2017-12-04T01:18:26.215Z,28.58
2017-12-04T01:20:54.468Z,28.15
2017-12-04T01:23:21.982Z,25.80
2017-12-04T01:25:49.514Z,26.33
2017-12-04T01:28:16.972Z,30.58
2017-12-04T01:30:45.242Z,28.10
2017-12-04T01:33:13.499Z,30.88
2017-12-04T01:35:40.994Z,28.52
2017-12-04T01:38:08.500Z,30.12
2017-12-04T01:40:36.035Z,28.48
2017-12-04T01:43:03.583Z,29.20
2017-12-04T01:45:31.091Z,31.33
2017-12-04T01:47:58.585Z,31.37
2017-12-04T01:50:26.834Z,32.25
2017-12-04T01:52:54.355Z,33.75
2017-12-04T01:55:21.842Z,29.58
2017-12-04T01:57:49.338Z,33.38
2017-12-04T02:00:16.855Z,37.03
2017-12-04T02:02:44.331Z,36.40
2017-12-04T02:05:12.588Z,40.90
2017-12-04T02:07:40.766Z,41.78
2017-12-04T02:10:08.251Z,43.05
2017-12-04T02:12:35.779Z,44.55
2017-12-04T02:15:03.292Z,43.65
2017-12-04T02:17:30.781Z,51.92
2017-12-04T02:19:58.263Z,47.72
2017-12-04T02:22:25.767Z,45.03
2017-12-04T02:24:53.254Z,47.60
2017-12-04T02:27:20.768Z,45.38
2017-12-04T02:29:48.260Z,42.85
2017-12-04T02:32:15.761Z,44.00
2017-12-04T02:34:44.029Z,49.65
2017-12-04T02:37:11.524Z,48.20
2017-12-04T02:39:39.018Z,45.90
2017-12-04T02:42:06.782Z,48.13
2017-12-04T02:44:34.268Z,46.40
2017-12-04T02:47:01.831Z,46.70
2017-12-04T02:49:29.266Z,46.25
2017-12-04T02:51:56.752Z,46.67
2017-12-04T02:54:25.012Z,48.80
2017-12-04T02:56:52.543Z,51.47
2017-12-04T02:59:20.020Z,46.53
2017-12-04T03:01:47.535Z,49.17
2017-12-04T03:04:15.031Z,48.30
2017-12-04T03:06:42.527Z,45.42
2017-12-04T03:09:10.780Z,43.80
2017-12-04T03:11:38.267Z,39.90
2017-12-04T03:14:06.517Z,41.63
2017-12-04T03:16:34.016Z,36.13
2017-12-04T03:19:01.513Z,33.88
2017-12-04T03:21:29.010Z,31.80
2017-12-04T03:23:57.268Z,30.30
2017-12-04T03:26:24.759Z,27.48
2017-12-04T03:28:52.329Z,26.52
2017-12-04T03:31:19.828Z,23.45
2017-12-04T03:33:47.306Z,27.02
2017-12-04T03:36:15.575Z,24.83
2017-12-04T03:38:43.122Z,24.27
2017-12-04T03:41:10.581Z,25.48
2017-12-04T03:43:38.067Z,25.08
2017-12-04T03:46:05.621Z,25.88
2017-12-04T03:48:33.109Z,25.40
2017-12-04T03:51:00.611Z,24.67
2017-12-04T03:53:28.661Z,23.25
2017-12-04T03:55:56.225Z,28.23
2017-12-04T03:58:23.700Z,26.02
2017-12-04T04:00:51.185Z,24.00
2017-12-04T04:03:18.682Z,28.02
2017-12-04T04:05:46.181Z,24.35
2017-12-04T04:08:13.670Z,27.77
2017-12-04T04:10:41.189Z,26.58
2017-12-04T04:13:08.681Z,24.98
2017-12-04T04:15:36.930Z,27.25
2017-12-04T04:18:04.411Z,25.08
2017-12-04T04:20:32.671Z,26.77
2017-12-04T04:23:00.172Z,29.42
2017-12-04T04:25:27.674Z,27.98
2017-12-04T04:27:55.180Z,24.85
2017-12-04T04:30:22.695Z,24.90
2017-12-04T04:32:50.188Z,24.85
2017-12-04T04:35:18.452Z,24.20
2017-12-04T04:37:46.699Z,22.67
2017-12-04T04:40:14.185Z,23.00
2017-12-04T04:42:42.527Z,24.12
2017-12-04T04:45:10.012Z,23.87
2017-12-04T04:47:37.508Z,22.67
2017-12-04T04:50:04.984Z,22.87
2017-12-04T04:52:32.479Z,22.48
2017-12-04T04:54:59.972Z,23.83
2017-12-04T04:57:27.490Z,21.83
2017-12-04T04:59:54.972Z,23.52
2017-12-04T05:02:23.244Z,22.83
2017-12-04T05:04:50.740Z,25.80
2017-12-04T05:07:18.278Z,25.30
2017-12-04T05:09:46.562Z,26.75
2017-12-04T05:12:14.146Z,29.60
2017-12-04T05:14:41.735Z,29.25
2017-12-04T05:17:09.231Z,33.88
2017-12-04T05:19:37.479Z,36.65
2017-12-04T05:22:04.975Z,31.67
2017-12-04T05:24:32.467Z,31.75
2017-12-04T05:27:00.068Z,33.80
2017-12-04T05:29:28.320Z,33.85
2017-12-04T05:31:55.823Z,39.17
2017-12-04T05:34:23.303Z,33.15
2017-12-04T05:36:50.904Z,36.38
2017-12-04T05:39:19.054Z,34.92
2017-12-04T05:41:47.456Z,33.63
2017-12-04T05:44:14.978Z,34.97
2017-12-04T05:46:42.471Z,40.95
2017-12-04T05:49:09.970Z,40.85
2017-12-04T05:51:37.468Z,39.72
2017-12-04T05:54:04.957Z,34.97
2017-12-04T05:56:32.477Z,33.78
2017-12-04T05:58:59.958Z,34.60
2017-12-04T06:01:27.469Z,38.05
2017-12-04T06:03:54.963Z,34.25
2017-12-04T06:06:22.471Z,29.90
2017-12-04T06:08:49.989Z,37.08
2017-12-04T06:11:17.512Z,33.60
2017-12-04T06:13:45.009Z,36.38
2017-12-04T06:16:12.516Z,37.72
2017-12-04T06:18:40.012Z,35.63
2017-12-04T06:21:07.531Z,37.40
2017-12-04T06:23:35.027Z,39.50
2017-12-04T06:26:02.552Z,35.17
2017-12-04T06:28:30.035Z,43.37
2017-12-04T06:30:57.526Z,36.13
2017-12-04T06:33:25.810Z,37.58
2017-12-04T06:35:53.300Z,34.43
2017-12-04T06:38:20.787Z,38.05
2017-12-04T06:40:48.292Z,35.92
2017-12-04T06:43:16.549Z,37.85
2017-12-04T06:45:44.059Z,37.92
2017-12-04T06:48:11.551Z,35.63
2017-12-04T06:50:39.056Z,35.95
2017-12-04T06:53:06.540Z,37.53
2017-12-04T06:55:34.051Z,31.27
2017-12-04T06:58:01.531Z,33.27
2017-12-04T07:00:29.792Z,36.17
2017-12-04T07:02:58.055Z,34.73
2017-12-04T07:05:25.550Z,36.87
2017-12-04T07:07:53.030Z,36.53
2017-12-04T07:10:20.538Z,30.83
2017-12-04T07:12:48.026Z,30.27
2017-12-04T07:15:15.535Z,34.10
2017-12-04T07:17:43.015Z,28.93
2017-12-04T07:20:11.296Z,33.30
2017-12-04T07:22:39.547Z,31.90
2017-12-04T07:25:07.086Z,27.10
2017-12-04T07:27:34.579Z,27.83
2017-12-04T07:30:02.068Z,30.23
2017-12-04T07:32:29.576Z,30.00
2017-12-04T07:34:57.074Z,27.00
2017-12-04T07:37:25.335Z,26.87
2017-12-04T07:39:53.587Z,25.40
2017-12-04T07:42:21.091Z,26.83
2017-12-04T07:44:49.347Z,33.33
2017-12-04T07:47:17.622Z,28.30
2017-12-04T07:49:45.883Z,26.10
2017-12-04T07:52:13.389Z,24.47
2017-12-04T07:54:40.895Z,28.13
2017-12-04T07:57:08.414Z,24.30
2017-12-04T07:59:35.899Z,25.70
2017-12-04T08:02:03.415Z,25.50
2017-12-04T08:04:31.039Z,24.53
2017-12-04T08:06:58.595Z,26.93
2017-12-04T08:09:26.077Z,27.67
2017-12-04T08:11:53.597Z,24.93
2017-12-04T08:14:21.121Z,22.47
2017-12-04T08:16:49.355Z,23.10
2017-12-04T08:19:16.968Z,20.63
2017-12-04T08:21:44.548Z,20.10
2017-12-04T08:24:12.037Z,19.30
2017-12-04T08:26:39.539Z,22.10
2017-12-04T08:29:07.033Z,18.93
2017-12-04T08:31:34.523Z,21.53
2017-12-04T08:34:02.791Z,18.33
2017-12-04T08:36:31.058Z,21.57
2017-12-04T08:38:59.114Z,21.57
2017-12-04T08:41:26.602Z,18.73
2017-12-04T08:43:54.873Z,20.37
2017-12-04T08:46:23.136Z,18.90
2017-12-04T08:48:50.610Z,20.97
2017-12-04T08:51:18.944Z,18.40
2017-12-04T08:53:46.447Z,18.83
2017-12-04T08:56:14.691Z,20.20
2017-12-04T08:58:42.173Z,19.23
2017-12-04T09:01:10.472Z,18.83
2017-12-04T09:03:37.951Z,17.73
2017-12-04T09:06:05.468Z,18.73
2017-12-04T09:08:33.763Z,17.17
2017-12-04T09:11:01.274Z,19.77
2017-12-04T09:13:28.879Z,20.13
2017-12-04T09:15:57.132Z,17.30
2017-12-04T09:18:24.658Z,21.60
2017-12-04T09:20:52.936Z,16.00
2017-12-04T09:23:20.493Z,18.87
2017-12-04T09:25:48.008Z,15.70
2017-12-04T09:28:15.516Z,13.03
2017-12-04T09:30:43.002Z,14.80
2017-12-04T09:33:11.247Z,14.23
2017-12-04T09:35:38.740Z,13.57
2017-12-04T09:38:06.987Z,14.67
2017-12-04T09:40:34.492Z,14.00
2017-12-04T09:43:02.026Z,13.77
2017-12-04T09:45:30.346Z,13.43
2017-12-04T09:47:57.980Z,13.77
2017-12-04T09:50:26.324Z,11.27
2017-12-04T09:52:53.813Z,8.07
2017-12-04T09:55:22.100Z,7.33
2017-12-04T09:57:50.331Z,8.50
2017-12-04T10:00:17.839Z,6.77
2017-12-04T10:02:45.335Z,8.37
2017-12-04T10:05:12.808Z,7.80
2017-12-04T10:07:40.302Z,6.17
2017-12-04T10:10:08.555Z,7.50
2017-12-04T10:12:36.039Z,6.60
2017-12-04T10:15:04.303Z,5.63
2017-12-04T10:17:32.543Z,6.37
2017-12-04T10:20:00.025Z,5.50
2017-12-04T10:22:27.553Z,7.40
2017-12-04T10:24:55.075Z,8.17
2017-12-04T10:27:22.580Z,7.03
2017-12-04T10:29:50.127Z,6.07
2017-12-04T10:32:17.619Z,4.57
2017-12-04T10:34:45.095Z,5.87
2017-12-04T10:37:13.589Z,8.57
2017-12-04T10:39:41.108Z,5.53
2017-12-04T10:42:08.592Z,6.87
2017-12-04T10:44:36.837Z,5.97
2017-12-04T10:47:04.599Z,4.87
2017-12-04T10:49:32.098Z,5.80
2017-12-04T10:51:59.590Z,5.23
2017-12-04T10:54:27.185Z,4.50
2017-12-04T10:56:54.691Z,6.57
2017-12-04T10:59:22.192Z,5.83
2017-12-04T11:01:49.697Z,7.03
2017-12-04T11:04:17.215Z,5.00
2017-12-04T11:06:44.696Z,4.60
2017-12-04T11:09:12.939Z,6.57
2017-12-04T11:11:40.415Z,6.03
2017-12-04T11:14:08.666Z,6.50
2017-12-04T11:16:36.158Z,5.97
2017-12-04T11:19:04.408Z,6.80
2017-12-04T11:21:31.883Z,7.90
2017-12-04T11:23:59.408Z,4.97
2017-12-04T11:26:26.914Z,6.07
2017-12-04T11:28:55.166Z,5.37
2017-12-04T11:31:22.724Z,5.47
2017-12-04T11:33:50.303Z,6.47
2017-12-04T11:36:18.728Z,9.07
2017-12-04T11:38:46.252Z,6.27
2017-12-04T11:41:13.753Z,7.00
2017-12-04T11:43:41.262Z,6.43
2017-12-04T11:46:09.514Z,6.57
2017-12-04T11:48:36.992Z,5.23
2017-12-04T11:51:05.248Z,8.43
2017-12-04T11:53:32.791Z,6.23
2017-12-04T11:56:00.296Z,2.17
2017-12-04T11:58:29.378Z,2.90
2017-12-04T12:00:57.623Z,3.30
2017-12-04T12:03:25.096Z,1.67
2017-12-04T12:05:52.579Z,2.47
2017-12-04T12:08:20.073Z,1.70
2017-12-04T12:10:47.595Z,5.33
2017-12-04T12:13:15.835Z,3.03
2017-12-04T12:15:43.473Z,2.17
2017-12-04T12:18:11.780Z,3.57
2017-12-04T12:20:39.664Z,2.90
2017-12-04T12:23:08.700Z,3.10
2017-12-04T12:25:36.255Z,2.50
2017-12-04T12:28:03.730Z,2.47
2017-12-04T12:30:31.215Z,4.43
2017-12-04T12:32:58.707Z,3.47
2017-12-04T12:35:26.224Z,1.90
2017-12-04T12:37:53.709Z,3.73
2017-12-04T12:40:21.996Z,3.80
2017-12-04T12:42:50.235Z,2.13
2017-12-04T12:45:17.729Z,3.83
2017-12-04T12:47:45.303Z,3.10
2017-12-04T12:50:12.806Z,2.13
2017-12-04T12:52:40.291Z,3.07
2017-12-04T12:55:07.771Z,4.77
2017-12-04T12:57:35.257Z,2.80
2017-12-04T13:00:02.750Z,3.17
2017-12-04T13:02:30.245Z,2.97
2017-12-04T13:04:58.496Z,3.70
2017-12-04T13:07:26.772Z,4.53
2017-12-04T13:09:54.256Z,1.63
2017-12-04T13:12:21.763Z,4.03
2017-12-04T13:14:49.243Z,3.80
2017-12-04T13:17:16.723Z,5.67
2017-12-04T13:19:44.980Z,3.53
2017-12-04T13:22:13.256Z,3.47
2017-12-04T13:24:41.531Z,3.63
2017-12-04T13:27:09.806Z,4.50
2017-12-04T13:29:38.073Z,2.73
2017-12-04T13:32:17.501Z,4.33
2017-12-04T13:34:57.191Z,4.67
2017-12-04T13:37:24.708Z,5.37
2017-12-04T13:39:52.212Z,4.27
2017-12-04T13:42:19.712Z,5.17
2017-12-04T13:44:47.202Z,2.30
2017-12-04T13:47:15.488Z,4.03
2017-12-04T13:49:43.733Z,6.07
2017-12-04T13:52:11.218Z,7.00
2017-12-04T13:54:39.475Z,5.53
2017-12-04T13:57:06.974Z,4.87
2017-12-04T13:59:34.447Z,3.73
2017-12-04T14:02:01.939Z,4.80
2017-12-04T14:04:29.445Z,4.53
2017-12-04T14:06:56.948Z,3.13
2017-12-04T14:09:24.479Z,4.53
2017-12-04T14:11:51.972Z,4.83
2017-12-04T14:14:19.456Z,4.93
2017-12-04T14:16:47.756Z,4.10
2017-12-04T14:19:15.287Z,3.60
2017-12-04T14:21:43.546Z,4.65
2017-12-04T14:24:11.051Z,6.90
2017-12-04T14:26:38.568Z,3.30
2017-12-04T14:29:06.055Z,3.97
2017-12-04T14:31:33.570Z,4.83
2017-12-04T14:34:01.081Z,4.28
2017-12-04T14:36:28.568Z,4.67
2017-12-04T14:38:56.063Z,4.32
2017-12-04T14:41:24.694Z,3.90
2017-12-04T14:43:52.210Z,4.87
2017-12-04T14:46:20.502Z,6.03
2017-12-04T14:48:47.987Z,4.80
2017-12-04T14:51:15.480Z,4.03
2017-12-04T14:53:42.972Z,5.55
2017-12-04T14:56:11.158Z,4.07
2017-12-04T14:58:38.643Z,4.20
2017-12-04T15:01:06.143Z,4.95
2017-12-04T15:03:33.699Z,5.35
2017-12-04T15:06:01.276Z,5.10
2017-12-04T15:08:29.606Z,6.93
2017-12-04T15:10:57.132Z,4.47
2017-12-04T15:13:24.671Z,4.45
2017-12-04T15:15:52.971Z,7.65
2017-12-04T15:18:20.467Z,6.20
2017-12-04T15:20:48.869Z,7.25
2017-12-04T15:23:17.399Z,6.18
2017-12-04T15:25:45.477Z,7.35
2017-12-04T15:28:13.030Z,4.60
2017-12-04T15:30:40.571Z,3.72
2017-12-04T15:33:08.077Z,6.70
2017-12-04T15:35:35.916Z,4.93
2017-12-04T15:38:03.528Z,6.40
2017-12-04T15:40:32.016Z,9.20
2017-12-04T15:42:59.508Z,7.35
2017-12-04T15:45:27.032Z,7.45
2017-12-04T15:47:55.660Z,5.28
2017-12-04T15:50:23.343Z,3.87
2017-12-04T15:52:50.837Z,5.37
2017-12-04T15:55:19.099Z,4.85
2017-12-04T15:57:46.595Z,6.40
2017-12-04T16:00:14.118Z,6.18
2017-12-04T16:02:42.138Z,5.65
2017-12-04T16:05:09.833Z,7.05
2017-12-04T16:07:37.353Z,5.35
2017-12-04T16:10:04.980Z,5.20
2017-12-04T16:12:32.507Z,8.32
2017-12-04T16:15:00.806Z,8.70
2017-12-04T16:17:29.229Z,10.25
2017-12-04T16:19:57.318Z,6.97
2017-12-04T16:22:24.919Z,8.70
2017-12-04T16:24:52.452Z,5.53
2017-12-04T16:27:20.755Z,9.38
2017-12-04T16:29:48.271Z,5.85
2017-12-04T16:32:15.775Z,7.72
2017-12-04T16:34:43.264Z,7.12
2017-12-04T16:37:10.796Z,7.18
2017-12-04T16:39:38.276Z,9.82
2017-12-04T16:42:05.807Z,15.82
2017-12-04T16:44:33.780Z,20.88
2017-12-04T16:47:01.289Z,7.60
2017-12-04T16:49:28.833Z,9.15
2017-12-04T16:51:56.319Z,6.95
2017-12-04T16:54:23.795Z,5.80
2017-12-04T16:56:51.304Z,8.70
2017-12-04T16:59:18.787Z,6.65
2017-12-04T17:01:46.424Z,7.72
2017-12-04T17:04:14.002Z,6.78
2017-12-04T17:06:43.959Z,9.00
2017-12-04T17:09:11.451Z,7.95
2017-12-04T17:11:39.135Z,9.13
2017-12-04T17:14:06.644Z,6.35
2017-12-04T17:16:34.562Z,8.93
2017-12-04T17:19:02.332Z,6.78
2017-12-04T17:21:29.818Z,8.82
2017-12-04T17:23:57.753Z,6.53
2017-12-04T17:26:25.339Z,6.57
2017-12-04T17:28:52.904Z,5.00
2017-12-04T17:31:21.411Z,9.98
2017-12-04T17:33:49.710Z,9.40
2017-12-04T17:36:17.439Z,9.55
2017-12-04T17:38:45.720Z,8.15
2017-12-04T17:41:13.472Z,7.25
2017-12-04T17:43:41.254Z,7.25
2017-12-04T17:46:08.949Z,9.13
2017-12-04T17:48:36.677Z,7.43
2017-12-04T17:51:05.244Z,9.70
2017-12-04T17:53:32.749Z,11.43
2017-12-04T17:56:00.342Z,5.80
2017-12-04T17:58:28.044Z,8.80
2017-12-04T18:00:55.712Z,8.82
2017-12-04T18:03:24.063Z,7.30
2017-12-04T18:05:52.167Z,7.50
2017-12-04T18:08:20.580Z,8.65
2017-12-04T18:10:48.226Z,7.60
2017-12-04T18:13:15.774Z,7.87
2017-12-04T18:15:43.299Z,6.85
2017-12-04T18:18:11.129Z,8.68
2017-12-04T18:20:39.402Z,7.93
2017-12-04T18:23:06.889Z,8.48
2017-12-04T18:25:34.810Z,7.87
2017-12-04T18:28:02.899Z,6.03
2017-12-04T18:30:30.665Z,8.02
2017-12-04T18:32:58.360Z,6.95
2017-12-04T18:35:26.007Z,5.12
2017-12-04T18:37:53.595Z,6.87
2017-12-04T18:40:21.157Z,10.43
2017-12-04T18:42:48.725Z,8.63
2017-12-04T18:45:17.088Z,5.72
2017-12-04T18:47:44.656Z,7.28
2017-12-04T18:50:12.924Z,6.07
2017-12-04T18:52:40.568Z,7.40
2017-12-04T18:55:08.386Z,8.38
2017-12-04T18:57:35.872Z,33.72
2017-12-04T19:00:03.477Z,12.50
2017-12-04T19:02:31.168Z,6.70
2017-12-04T19:04:58.667Z,7.10
2017-12-04T19:07:26.274Z,8.50
2017-12-04T19:09:54.579Z,7.55
2017-12-04T19:12:22.075Z,7.22
2017-12-04T19:14:49.779Z,8.88
2017-12-04T19:17:17.366Z,5.87
2017-12-04T19:19:44.877Z,7.30
2017-12-04T19:22:12.387Z,8.10
2017-12-04T19:24:40.127Z,9.48
2017-12-04T19:27:07.611Z,8.70
2017-12-04T19:29:35.102Z,6.28
2017-12-04T19:32:02.992Z,8.60
2017-12-04T19:34:31.247Z,9.00
2017-12-04T19:36:58.756Z,8.23
2017-12-04T19:39:26.484Z,7.32
2017-12-04T19:41:54.020Z,7.97
2017-12-04T19:44:21.601Z,7.37
2017-12-04T19:46:49.270Z,7.75
2017-12-04T19:49:17.636Z,7.25
2017-12-04T19:51:46.159Z,8.85
2017-12-04T19:54:13.797Z,10.25
2017-12-04T19:56:49.356Z,9.43
2017-12-04T19:59:17.020Z,10.45
2017-12-04T20:01:44.842Z,10.18
2017-12-04T20:04:12.537Z,8.20
2017-12-04T20:06:41.020Z,9.10
2017-12-04T20:09:08.587Z,9.80
2017-12-04T20:11:36.114Z,9.75
2017-12-04T20:14:03.743Z,9.65
2017-12-04T20:16:31.324Z,9.30
2017-12-04T20:18:58.880Z,7.72
2017-12-04T20:21:26.778Z,7.65
2017-12-04T20:23:54.927Z,8.13
2017-12-04T20:26:22.754Z,8.65
2017-12-04T20:28:50.321Z,8.60
2017-12-04T20:31:18.039Z,9.57
2017-12-04T20:33:46.463Z,9.73
2017-12-04T20:36:14.324Z,8.88
2017-12-04T20:38:42.111Z,8.18
2017-12-04T20:41:09.771Z,9.50
2017-12-04T20:43:37.438Z,9.25
2017-12-04T20:46:05.130Z,8.73
2017-12-04T20:48:32.786Z,10.82
2017-12-04T20:51:01.287Z,10.65
2017-12-04T20:53:29.671Z,9.02
2017-12-04T20:55:58.124Z,12.43
2017-12-04T20:58:25.719Z,9.25
2017-12-04T21:00:54.013Z,11.38
2017-12-04T21:03:21.591Z,10.50
2017-12-04T21:05:49.452Z,7.75
2017-12-04T21:08:28.827Z,8.15
2017-12-04T21:11:08.388Z,7.68
2017-12-04T21:13:47.620Z,9.18
2017-12-04T21:16:27.852Z,11.15
2017-12-04T21:18:55.381Z,11.35
2017-12-04T21:21:22.883Z,7.90
2017-12-04T21:23:51.139Z,11.27
2017-12-04T21:26:18.729Z,8.35
2017-12-04T21:28:47.002Z,11.02
2017-12-04T21:31:15.296Z,13.25
2017-12-04T21:33:42.790Z,12.00
2017-12-04T21:36:10.312Z,8.68
2017-12-04T21:38:37.791Z,10.27
2017-12-04T21:41:05.307Z,10.52
2017-12-04T21:43:33.598Z,14.25
2017-12-04T21:46:02.119Z,11.38
2017-12-04T21:48:30.028Z,10.57
2017-12-04T21:50:58.236Z,11.25
2017-12-04T21:53:25.707Z,8.50
2017-12-04T21:55:53.221Z,9.48
2017-12-04T21:58:21.484Z,10.77
2017-12-04T22:00:49.062Z,11.43
2017-12-04T22:03:17.325Z,10.70
2017-12-04T22:05:44.815Z,11.40
2017-12-04T22:08:12.331Z,11.80
2017-12-04T22:10:39.863Z,7.80
2017-12-04T22:13:07.346Z,9.43
2017-12-04T22:15:34.830Z,10.35
2017-12-04T22:18:03.081Z,9.23
2017-12-04T22:20:30.583Z,10.02
2017-12-04T22:22:58.065Z,9.10
2017-12-04T22:25:25.729Z,8.35
2017-12-04T22:27:53.212Z,13.90
2017-12-04T22:30:20.848Z,9.57
2017-12-04T22:32:48.340Z,13.27
2017-12-04T22:35:15.824Z,9.82
2017-12-04T22:37:44.068Z,9.43
2017-12-04T22:40:11.561Z,11.27
2017-12-04T22:42:39.824Z,10.15
2017-12-04T22:45:08.087Z,11.63
2017-12-04T22:47:35.586Z,11.60
2017-12-04T22:50:03.091Z,8.98
2017-12-04T22:52:30.570Z,7.75
2017-12-04T22:54:58.051Z,8.10
2017-12-04T22:57:26.304Z,9.27
2017-12-04T22:59:54.553Z,13.15
2017-12-04T23:02:22.035Z,12.45
2017-12-04T23:04:49.516Z,11.23
2017-12-04T23:07:17.037Z,8.95
2017-12-04T23:09:44.515Z,8.27
2017-12-04T23:12:12.789Z,11.90
2017-12-04T23:14:41.048Z,11.45
2017-12-04T23:17:08.552Z,8.15
2017-12-04T23:19:36.032Z,6.93
2017-12-04T23:22:04.355Z,9.32
2017-12-04T23:24:31.992Z,12.23
2017-12-04T23:26:59.508Z,11.88
2017-12-04T23:29:27.012Z,9.65
2017-12-04T23:31:54.509Z,13.38
2017-12-04T23:34:22.014Z,8.80
2017-12-04T23:36:49.515Z,9.25
2017-12-04T23:39:16.990Z,9.75
2017-12-04T23:41:44.478Z,11.80
2017-12-04T23:44:11.959Z,11.30
2017-12-04T23:46:39.454Z,12.77
2017-12-04T23:49:08.124Z,11.70
2017-12-04T23:51:35.642Z,8.85
2017-12-04T23:54:03.138Z,9.00
2017-12-04T23:56:30.630Z,13.60
2017-12-04T23:58:58.152Z,11.77
